Time;durP1;ratioP1;P1;durP2;ratioP2;P2;SDS_P1;SDS_P2;PMS_P1;PMS_P2;Temp;Humidity;BMP_temperature;BMP_pressure;BME280_temperature;BME280_humidity;BME280_pressure;Samples;Min_cycle;Max_cycle;Signal;HPM_P1;HPM_P2
2021/06/27 00:00:34;;;;;;;54.15;42.70;;;16.80;99.90;;;;;;5030743;28;20420;-45
2021/06/27 00:03:20;;;;;;;52.00;43.00;;;16.80;99.90;;;;;;5027927;28;20753;-46
2021/06/27 00:05:47;;;;;;;56.92;42.95;;;16.70;99.90;;;;;;5027126;28;20042;-48
2021/06/27 00:08:16;;;;;;;51.35;41.67;;;16.70;99.90;;;;;;5013568;28;20120;-49
2021/06/27 00:10:47;;;;;;;49.88;42.45;;;16.70;99.90;;;;;;5011714;28;20049;-47
2021/06/27 00:13:15;;;;;;;47.90;41.20;;;16.60;99.90;;;;;;5028668;28;20098;-45
2021/06/27 00:15:49;;;;;;;51.50;41.15;;;16.60;99.90;;;;;;5029236;28;20788;-46
2021/06/27 00:18:19;;;;;;;51.58;41.70;;;16.50;99.90;;;;;;5018839;28;20046;-49
2021/06/27 00:20:48;;;;;;;52.70;40.50;;;16.50;99.90;;;;;;5010021;28;20429;-47
2021/06/27 00:23:17;;;;;;;49.85;41.22;;;16.50;99.90;;;;;;5025855;28;20133;-47
2021/06/27 00:25:44;;;;;;;53.47;40.58;;;16.40;99.90;;;;;;5032333;28;20445;-50
2021/06/27 00:28:14;;;;;;;51.88;40.47;;;16.40;99.90;;;;;;5027461;28;20047;-46
2021/06/27 00:30:43;;;;;;;52.22;41.55;;;16.40;99.90;;;;;;5027386;28;20357;-45
2021/06/27 00:33:10;;;;;;;52.05;40.85;;;16.30;99.90;;;;;;5021376;28;20478;-46
2021/06/27 00:35:37;;;;;;;53.97;41.25;;;16.30;99.90;;;;;;5024351;28;20050;-46
2021/06/27 00:38:05;;;;;;;50.45;39.25;;;16.30;99.90;;;;;;5007161;28;20075;-46
2021/06/27 00:40:32;;;;;;;51.72;40.13;;;16.30;99.90;;;;;;5027808;28;20095;-47
2021/06/27 00:43:02;;;;;;;51.50;41.10;;;16.20;99.90;;;;;;5026126;28;20127;-46
2021/06/27 00:45:29;;;;;;;46.72;37.85;;;16.20;99.90;;;;;;5028879;28;20102;-45
2021/06/27 00:47:59;;;;;;;50.70;40.78;;;16.20;99.90;;;;;;5028033;28;20556;-45
2021/06/27 00:50:35;;;;;;;47.70;38.60;;;16.10;99.90;;;;;;5014588;28;20103;-47
2021/06/27 00:53:02;;;;;;;49.53;38.17;;;16.10;99.90;;;;;;5014601;28;20054;-48
2021/06/27 00:55:29;;;;;;;49.83;37.60;;;16.10;99.90;;;;;;5027723;28;20184;-48
2021/06/27 00:57:56;;;;;;;50.53;37.88;;;16.10;99.90;;;;;;5028820;28;20136;-46
2021/06/27 01:00:36;;;;;;;49.38;37.45;;;16.10;99.90;;;;;;5024998;28;20049;-45
2021/06/27 01:03:05;;;;;;;48.58;36.58;;;16.00;99.90;;;;;;5026851;28;20529;-47
2021/06/27 01:05:37;;;;;;;48.72;37.20;;;16.00;99.90;;;;;;5023016;28;20072;-48
2021/06/27 01:08:04;;;;;;;46.03;35.95;;;16.00;99.90;;;;;;5011494;28;20050;-49
2021/06/27 01:10:37;;;;;;;46.90;36.58;;;15.90;99.90;;;;;;5015506;28;20045;-46
2021/06/27 01:13:04;;;;;;;47.08;35.72;;;15.90;99.90;;;;;;5033897;28;20759;-47
2021/06/27 01:15:33;;;;;;;47.45;36.75;;;15.90;99.90;;;;;;5027574;28;20077;-47
2021/06/27 01:18:00;;;;;;;48.17;37.00;;;15.90;99.90;;;;;;5027941;28;20124;-45
2021/06/27 01:20:30;;;;;;;51.55;38.67;;;15.90;99.90;;;;;;5017997;28;20046;-47
2021/06/27 01:22:59;;;;;;;44.22;35.83;;;15.90;99.90;;;;;;5021195;28;20049;-45
2021/06/27 01:25:32;;;;;;;51.35;37.08;;;15.90;99.90;;;;;;5034755;28;20038;-47
2021/06/27 01:27:59;;;;;;;46.22;37.10;;;15.80;99.90;;;;;;5027069;28;20057;-47
2021/06/27 01:30:27;;;;;;;48.00;36.55;;;15.80;99.90;;;;;;5027594;28;20057;-49
2021/06/27 01:32:57;;;;;;;47.55;35.90;;;15.80;99.90;;;;;;5029810;28;20052;-47
2021/06/27 01:35:26;;;;;;;46.80;35.35;;;15.80;99.90;;;;;;5026685;28;20060;-46
2021/06/27 01:37:56;;;;;;;45.08;34.55;;;15.80;99.90;;;;;;5025713;28;20092;-49
2021/06/27 01:40:25;;;;;;;48.22;35.28;;;15.70;99.90;;;;;;5027678;28;20049;-46
2021/06/27 01:42:52;;;;;;;49.05;35.40;;;15.70;99.90;;;;;;5025947;28;20041;-45
2021/06/27 01:45:24;;;;;;;50.03;36.10;;;15.70;99.90;;;;;;5027013;28;20046;-46
2021/06/27 01:48:01;;;;;;;48.13;34.47;;;15.70;99.90;;;;;;5027015;28;20477;-45
2021/06/27 01:50:28;;;;;;;50.33;36.50;;;15.70;99.90;;;;;;5035057;28;20146;-46
2021/06/27 01:52:56;;;;;;;48.15;35.53;;;15.70;99.90;;;;;;5012330;28;20049;-47
2021/06/27 01:55:24;;;;;;;49.58;37.58;;;15.70;99.90;;;;;;5019285;28;20041;-46
2021/06/27 01:57:53;;;;;;;51.35;37.97;;;15.70;99.90;;;;;;5027614;28;20136;-46
2021/06/27 02:00:21;;;;;;;49.00;35.90;;;15.70;99.90;;;;;;5017479;28;20045;-45
2021/06/27 02:02:48;;;;;;;48.38;35.13;;;15.70;99.90;;;;;;5016218;28;20041;-45
2021/06/27 02:05:18;;;;;;;48.25;35.22;;;15.60;99.90;;;;;;5027329;28;20057;-45
2021/06/27 02:07:44;;;;;;;46.22;35.05;;;15.60;99.90;;;;;;5015152;28;20053;-46
2021/06/27 02:10:13;;;;;;;51.00;35.15;;;15.60;99.90;;;;;;5007286;28;20058;-46
2021/06/27 02:12:40;;;;;;;49.40;34.72;;;15.60;99.90;;;;;;5009352;28;20038;-47
2021/06/27 02:15:08;;;;;;;47.80;35.13;;;15.60;99.90;;;;;;5007467;28;20076;-47
2021/06/27 02:17:36;;;;;;;49.00;34.85;;;15.60;99.90;;;;;;5025027;28;20053;-46
2021/06/27 02:20:09;;;;;;;45.75;33.92;;;15.60;99.90;;;;;;5027263;28;20485;-47
2021/06/27 02:22:36;;;;;;;47.13;33.97;;;15.60;99.90;;;;;;5021652;28;20049;-45
2021/06/27 02:25:03;;;;;;;48.10;33.97;;;15.50;99.90;;;;;;5027145;28;20469;-45
2021/06/27 02:27:29;;;;;;;46.13;34.20;;;15.50;99.90;;;;;;5027771;28;20045;-47
2021/06/27 02:29:59;;;;;;;46.95;34.63;;;15.40;99.90;;;;;;5027238;28;20049;-46
2021/06/27 02:32:25;;;;;;;45.08;33.88;;;15.40;99.90;;;;;;5027106;28;20050;-45
2021/06/27 02:34:51;;;;;;;48.58;33.88;;;15.40;99.90;;;;;;5026955;28;20068;-45
2021/06/27 02:37:18;;;;;;;47.42;32.90;;;15.40;99.90;;;;;;5022610;28;20053;-46
2021/06/27 02:39:45;;;;;;;49.95;34.47;;;15.30;99.90;;;;;;5026596;28;20045;-46
2021/06/27 02:42:13;;;;;;;49.95;34.63;;;15.30;99.90;;;;;;5027125;28;20050;-47
2021/06/27 02:44:40;;;;;;;49.20;32.33;;;15.30;99.90;;;;;;5019028;28;20050;-51
2021/06/27 02:47:06;;;;;;;51.25;34.40;;;15.30;99.90;;;;;;5007239;28;20050;-45
2021/06/27 02:49:33;;;;;;;51.03;34.58;;;15.20;99.90;;;;;;5023047;28;20140;-45
2021/06/27 02:51:59;;;;;;;50.55;33.28;;;15.20;99.90;;;;;;5024404;28;20053;-45
2021/06/27 02:54:28;;;;;;;49.55;33.92;;;15.20;99.90;;;;;;5014555;28;20061;-45
2021/06/27 02:56:54;;;;;;;52.72;33.90;;;15.20;99.90;;;;;;5010471;28;20050;-45
2021/06/27 02:59:21;;;;;;;52.10;35.55;;;15.20;99.90;;;;;;5022264;28;20045;-46
2021/06/27 03:01:50;;;;;;;47.58;33.35;;;15.20;99.90;;;;;;5030169;28;20091;-46
2021/06/27 03:04:19;;;;;;;49.05;33.65;;;15.20;99.90;;;;;;5029770;28;20100;-46
2021/06/27 03:06:48;;;;;;;51.60;34.15;;;15.20;99.90;;;;;;5030686;28;20383;-47
2021/06/27 03:09:14;;;;;;;52.30;33.40;;;15.20;99.90;;;;;;5014695;28;20091;-46
2021/06/27 03:11:44;;;;;;;52.83;33.80;;;15.20;99.90;;;;;;5031033;28;20080;-46
2021/06/27 03:14:14;;;;;;;52.80;32.42;;;15.10;99.90;;;;;;5030581;28;20048;-46
2021/06/27 03:16:43;;;;;;;45.42;31.45;;;15.10;99.90;;;;;;5028036;28;20072;-45
2021/06/27 03:19:14;;;;;;;50.63;34.17;;;15.20;99.90;;;;;;5031008;28;20141;-46
2021/06/27 03:21:43;;;;;;;50.85;34.30;;;15.10;99.90;;;;;;5024275;28;20056;-46
2021/06/27 03:24:09;;;;;;;53.63;34.00;;;15.10;99.90;;;;;;5009965;28;20548;-48
2021/06/27 03:26:36;;;;;;;53.63;35.53;;;15.10;99.90;;;;;;5011434;28;20046;-46
2021/06/27 03:29:05;;;;;;;56.42;35.13;;;15.10;99.90;;;;;;5010245;28;20056;-47
2021/06/27 03:31:32;;;;;;;54.78;33.53;;;15.10;99.90;;;;;;5022320;28;20041;-46
2021/06/27 03:33:59;;;;;;;54.97;36.42;;;15.10;99.90;;;;;;5029804;28;20073;-46
2021/06/27 03:36:27;;;;;;;56.20;34.75;;;15.00;99.90;;;;;;5027916;28;20053;-46
2021/06/27 03:39:06;;;;;;;59.30;34.08;;;15.10;99.90;;;;;;5020111;28;20129;-46
2021/06/27 03:41:37;;;;;;;54.92;34.92;;;15.10;99.90;;;;;;5019644;28;20120;-46
2021/06/27 03:44:04;;;;;;;53.13;33.70;;;15.10;99.90;;;;;;5029433;28;20095;-46
2021/06/27 03:46:30;;;;;;;55.72;34.05;;;15.10;99.90;;;;;;5029740;28;20045;-46
2021/06/27 03:48:59;;;;;;;52.25;33.83;;;15.10;99.90;;;;;;5026532;28;20054;-46
2021/06/27 03:51:29;;;;;;;50.90;33.67;;;15.10;99.90;;;;;;5019683;28;20041;-45
2021/06/27 03:54:00;;;;;;;57.60;35.42;;;15.10;99.90;;;;;;5014635;28;20482;-47
2021/06/27 03:56:27;;;;;;;53.72;35.50;;;15.10;99.90;;;;;;5018185;28;20509;-48
2021/06/27 03:58:57;;;;;;;54.17;35.25;;;15.10;99.90;;;;;;5015382;28;20050;-46
2021/06/27 04:01:23;;;;;;;53.50;34.22;;;15.20;99.90;;;;;;5009358;28;20085;-46
2021/06/27 04:03:50;;;;;;;55.58;35.33;;;15.20;99.90;;;;;;5037603;28;20393;-46
2021/06/27 04:06:17;;;;;;;56.33;34.13;;;15.20;99.90;;;;;;5028858;28;20037;-47
2021/06/27 04:08:49;;;;;;;55.45;33.67;;;15.30;99.90;;;;;;5018101;28;20049;-48
2021/06/27 04:11:16;;;;;;;51.92;33.97;;;15.30;99.90;;;;;;5008711;28;20066;-46
2021/06/27 04:13:42;;;;;;;58.00;35.17;;;15.30;99.90;;;;;;5015639;28;20455;-48
2021/06/27 04:16:09;;;;;;;54.95;33.17;;;15.40;99.90;;;;;;5028200;28;20493;-46
2021/06/27 04:18:37;;;;;;;55.50;34.70;;;15.40;99.90;;;;;;5024868;28;20044;-46
2021/06/27 04:21:05;;;;;;;56.65;34.42;;;15.40;99.90;;;;;;5008866;28;20049;-46
2021/06/27 04:23:36;;;;;;;58.03;36.13;;;15.40;99.90;;;;;;5022282;28;20761;-45
2021/06/27 04:26:04;;;;;;;54.50;36.03;;;15.40;99.90;;;;;;5035999;28;20045;-46
2021/06/27 04:28:30;;;;;;;54.55;33.42;;;15.50;99.90;;;;;;5029088;28;20084;-47
2021/06/27 04:30:56;;;;;;;60.38;37.08;;;15.60;99.90;;;;;;5010914;28;20561;-49
2021/06/27 04:33:22;;;;;;;55.17;35.70;;;15.50;99.90;;;;;;5008977;28;20049;-46
2021/06/27 04:35:52;;;;;;;64.13;36.92;;;15.60;99.90;;;;;;5022058;28;20068;-48
2021/06/27 04:38:19;;;;;;;52.97;35.67;;;15.60;99.90;;;;;;5022085;28;20052;-48
2021/06/27 04:40:46;;;;;;;59.67;36.40;;;15.70;99.90;;;;;;5029911;28;20042;-45
2021/06/27 04:43:13;;;;;;;63.28;36.42;;;15.80;99.90;;;;;;5008889;28;20049;-46
2021/06/27 04:45:41;;;;;;;64.70;36.40;;;15.80;99.90;;;;;;5015921;28;20131;-48
2021/06/27 04:48:08;;;;;;;59.47;36.42;;;15.90;99.90;;;;;;5030421;28;20047;-48
2021/06/27 04:50:36;;;;;;;68.38;36.63;;;15.90;99.90;;;;;;5034128;28;20709;-48
2021/06/27 04:53:02;;;;;;;59.78;35.55;;;15.90;99.90;;;;;;5014542;28;20410;-47
2021/06/27 04:55:28;;;;;;;56.72;35.47;;;16.00;99.90;;;;;;5027126;28;20129;-47
2021/06/27 04:57:57;;;;;;;57.72;33.47;;;16.00;99.90;;;;;;5008190;28;20066;-46
2021/06/27 05:00:24;;;;;;;52.80;33.10;;;16.00;99.90;;;;;;5008210;28;20410;-47
2021/06/27 05:02:56;;;;;;;53.45;32.80;;;16.10;99.90;;;;;;5006727;28;20081;-51
2021/06/27 05:05:25;;;;;;;49.50;32.88;;;16.10;99.90;;;;;;5014823;28;20037;-51
2021/06/27 05:07:54;;;;;;;44.10;30.42;;;16.30;99.90;;;;;;5021641;28;20041;-51
2021/06/27 05:10:23;;;;;;;46.35;32.78;;;16.40;99.90;;;;;;5012758;28;20210;-51
2021/06/27 05:12:52;;;;;;;37.17;27.55;;;16.60;99.90;;;;;;5024603;28;20046;-49
2021/06/27 05:15:24;;;;;;;39.80;28.83;;;16.60;99.90;;;;;;5026949;28;20064;-52
2021/06/27 05:17:51;;;;;;;39.70;29.67;;;16.70;99.90;;;;;;5028577;28;20403;-47
2021/06/27 05:20:23;;;;;;;44.03;30.98;;;16.80;99.90;;;;;;5028015;28;20052;-50
2021/06/27 05:22:52;;;;;;;38.60;27.48;;;16.70;99.90;;;;;;5026473;28;20094;-49
2021/06/27 05:25:19;;;;;;;32.88;25.83;;;16.80;99.90;;;;;;5027395;28;20049;-49
2021/06/27 05:27:46;;;;;;;36.22;27.25;;;16.80;99.90;;;;;;5028118;28;20046;-51
2021/06/27 05:30:13;;;;;;;35.90;27.33;;;16.90;99.90;;;;;;5027799;28;20132;-52
2021/06/27 05:32:39;;;;;;;33.45;26.35;;;16.90;99.90;;;;;;5026393;28;20064;-50
2021/06/27 05:35:06;;;;;;;31.42;25.52;;;17.00;99.90;;;;;;5028205;28;20054;-51
2021/06/27 05:37:32;;;;;;;31.45;25.15;;;17.10;99.90;;;;;;5026369;28;20167;-49
2021/06/27 05:40:02;;;;;;;30.98;25.20;;;17.20;99.90;;;;;;5017576;28;20061;-49
2021/06/27 05:42:34;;;;;;;30.43;24.60;;;17.30;99.90;;;;;;5023984;28;20127;-51
2021/06/27 05:45:01;;;;;;;30.88;25.85;;;17.40;99.90;;;;;;5026989;28;20045;-48
2021/06/27 05:47:28;;;;;;;28.52;25.08;;;17.50;99.90;;;;;;5027730;28;20541;-51
2021/06/27 05:49:54;;;;;;;29.13;24.45;;;17.60;99.90;;;;;;5027622;28;20144;-52
2021/06/27 05:52:23;;;;;;;29.52;23.85;;;17.70;99.90;;;;;;5026148;28;20045;-48
2021/06/27 05:54:49;;;;;;;29.38;23.92;;;17.90;99.90;;;;;;5028255;28;20073;-51
2021/06/27 05:57:15;;;;;;;28.60;23.95;;;18.10;99.90;;;;;;5028109;28;20049;-50
2021/06/27 05:59:41;;;;;;;28.10;23.88;;;18.20;99.90;;;;;;5026958;28;20041;-52
2021/06/27 06:02:08;;;;;;;28.02;24.58;;;18.30;99.90;;;;;;5022687;28;20053;-50
2021/06/27 06:04:34;;;;;;;28.45;23.90;;;18.40;99.90;;;;;;5027658;28;20106;-49
2021/06/27 06:07:00;;;;;;;26.85;23.95;;;18.50;99.90;;;;;;5026512;28;20045;-49
2021/06/27 06:09:31;;;;;;;28.63;25.52;;;18.70;99.90;;;;;;5023540;28;20038;-50
2021/06/27 06:11:57;;;;;;;62.33;55.58;;;19.00;99.90;;;;;;5029982;28;20452;-49
2021/06/27 06:14:23;;;;;;;36.80;32.92;;;19.40;99.90;;;;;;5027394;28;20049;-51
2021/06/27 06:16:50;;;;;;;38.50;34.00;;;19.60;99.90;;;;;;5027426;28;20037;-51
2021/06/27 06:19:19;;;;;;;31.88;28.30;;;19.60;99.90;;;;;;5026513;28;20041;-52
2021/06/27 06:21:48;;;;;;;27.73;24.88;;;19.70;99.90;;;;;;5016976;28;20053;-50
2021/06/27 06:24:18;;;;;;;37.55;33.55;;;19.70;99.90;;;;;;5019100;28;20061;-53
2021/06/27 06:26:52;;;;;;;32.28;28.77;;;20.00;99.90;;;;;;5020169;28;20041;-49
2021/06/27 06:29:21;;;;;;;29.38;26.15;;;20.20;99.90;;;;;;5027192;28;20536;-49
2021/06/27 06:31:47;;;;;;;44.88;40.10;;;20.40;99.90;;;;;;5033505;28;20046;-48
2021/06/27 06:34:16;;;;;;;83.53;75.03;;;20.70;99.90;;;;;;5023108;28;20100;-48
2021/06/27 06:36:47;;;;;;;35.65;32.13;;;20.80;99.90;;;;;;5031273;28;20057;-48
2021/06/27 06:39:16;;;;;;;37.38;33.55;;;20.90;99.90;;;;;;5038250;28;20531;-49
2021/06/27 06:41:42;;;;;;;35.25;31.65;;;20.80;99.90;;;;;;5020303;28;20054;-48
2021/06/27 06:44:11;;;;;;;30.08;27.05;;;20.70;99.90;;;;;;5027470;28;20041;-50
2021/06/27 06:46:41;;;;;;;30.58;27.48;;;20.80;99.90;;;;;;5017794;28;20405;-50
2021/06/27 06:49:08;;;;;;;35.00;31.33;;;20.70;99.90;;;;;;5020591;28;20080;-48
2021/06/27 06:51:38;;;;;;;45.00;40.28;;;20.70;99.90;;;;;;5026701;28;20093;-49
2021/06/27 06:54:07;;;;;;;31.00;27.90;;;20.70;99.90;;;;;;5011093;28;20077;-47
2021/06/27 06:56:34;;;;;;;33.95;30.45;;;20.90;99.90;;;;;;5021641;28;20049;-48
2021/06/27 06:59:03;;;;;;;29.30;26.40;;;21.20;99.90;;;;;;5021187;28;20112;-49
2021/06/27 07:01:36;;;;;;;26.58;23.98;;;21.40;99.90;;;;;;5016117;28;20047;-48
2021/06/27 07:04:07;;;;;;;32.47;29.38;;;21.70;99.90;;;;;;5027432;28;20418;-49
2021/06/27 07:06:37;;;;;;;;;;;22.00;99.90;;;;;;5027515;28;20107;-50
2021/06/27 07:09:06;;;;;;;26.40;23.70;;;22.20;99.90;;;;;;5030931;28;20008;-49
2021/06/27 07:11:38;;;;;;;29.00;26.30;;;22.30;99.90;;;;;;5032641;28;20100;-47
2021/06/27 07:14:07;;;;;;;;;;;22.50;99.90;;;;;;5031501;28;20077;-49
2021/06/27 07:16:36;;;;;;;46.63;42.00;;;22.40;99.90;;;;;;5013019;28;20007;-49
2021/06/27 07:19:03;;;;;;;32.88;29.67;;;22.70;99.90;;;;;;5029511;28;20045;-47
2021/06/27 07:21:37;;;;;;;39.17;33.45;;;22.80;99.90;;;;;;5034315;28;20041;-48
2021/06/27 07:24:04;;;;;;;26.02;23.52;;;22.90;99.90;;;;;;5029243;28;20681;-54
2021/06/27 07:26:32;;;;;;;24.60;22.20;;;23.00;99.90;;;;;;5029347;28;20045;-48
2021/06/27 07:29:02;;;;;;;23.98;21.65;;;23.00;99.90;;;;;;5023015;28;20687;-50
2021/06/27 07:31:30;;;;;;;22.17;20.13;;;23.30;99.90;;;;;;5028245;28;20053;-50
2021/06/27 07:33:59;;;;;;;21.05;19.17;;;23.30;99.90;;;;;;5009646;28;20553;-50
2021/06/27 07:36:28;;;;;;;22.27;20.23;;;23.40;99.90;;;;;;5022329;28;20773;-50
2021/06/27 07:38:58;;;;;;;23.40;21.20;;;23.40;99.90;;;;;;5024588;28;20046;-44
2021/06/27 07:41:26;;;;;;;23.35;21.25;;;23.50;99.90;;;;;;5014213;28;20128;-48
2021/06/27 07:43:56;;;;;;;30.70;27.63;;;23.50;99.90;;;;;;5011654;28;20187;-46
2021/06/27 07:46:28;;;;;;;27.65;24.98;;;23.80;99.90;;;;;;5030343;28;20422;-48
2021/06/27 07:48:54;;;;;;;26.60;24.15;;;23.90;99.90;;;;;;5028897;28;20050;-47
2021/06/27 07:51:26;;;;;;;25.85;23.40;;;24.00;99.80;;;;;;5020307;28;20054;-47
2021/06/27 07:53:58;;;;;;;22.63;20.42;;;24.30;99.90;;;;;;5023014;28;20064;-48
2021/06/27 07:56:25;;;;;;;22.23;20.08;;;24.40;97.70;;;;;;5027101;28;20068;-46
2021/06/27 07:58:54;;;;;;;20.13;18.13;;;24.70;97.50;;;;;;5028573;28;20053;-47
2021/06/27 08:01:22;;;;;;;26.95;24.35;;;24.90;97.70;;;;;;5032936;28;20049;-46
2021/06/27 08:03:51;;;;;;;22.25;20.10;;;25.00;95.80;;;;;;5028442;28;20051;-45
2021/06/27 08:06:21;;;;;;;19.10;17.20;;;25.10;96.90;;;;;;5024602;28;20074;-48
2021/06/27 08:08:52;;;;;;;17.77;16.17;;;25.40;95.70;;;;;;5022185;28;20037;-47
2021/06/27 08:11:22;;;;;;;18.73;17.00;;;25.50;95.10;;;;;;5023679;28;20449;-46
2021/06/27 08:13:51;;;;;;;16.63;14.93;;;25.70;94.50;;;;;;5032097;28;20080;-46
2021/06/27 08:16:20;;;;;;;59.88;54.58;;;25.70;94.40;;;;;;5034894;28;20053;-50
2021/06/27 08:18:51;;;;;;;37.83;34.42;;;26.00;93.00;;;;;;5031178;28;20111;-47
2021/06/27 08:21:26;;;;;;;21.85;19.73;;;26.10;92.00;;;;;;5027292;28;20048;-46
2021/06/27 08:23:55;;;;;;;24.48;22.10;;;26.10;91.10;;;;;;5011509;28;20081;-47
2021/06/27 08:26:25;;;;;;;34.47;31.48;;;26.30;90.60;;;;;;5013344;28;20042;-45
2021/06/27 08:28:56;;;;;;;19.55;17.60;;;26.40;89.80;;;;;;5023472;28;20092;-49
2021/06/27 08:31:28;;;;;;;20.23;18.27;;;26.30;88.90;;;;;;5035036;28;20064;-45
2021/06/27 08:33:57;;;;;;;18.65;16.92;;;26.10;89.40;;;;;;5023941;28;20860;-48
2021/06/27 08:36:28;;;;;;;18.65;17.00;;;26.20;88.50;;;;;;5008649;28;20061;-46
2021/06/27 08:38:57;;;;;;;20.33;18.35;;;26.00;90.10;;;;;;5013330;28;20087;-46
2021/06/27 08:41:24;;;;;;;15.90;14.32;;;26.20;90.40;;;;;;5023562;28;20049;-48
2021/06/27 08:43:56;;;;;;;44.92;40.95;;;26.20;89.50;;;;;;5027264;28;20152;-49
2021/06/27 08:46:26;;;;;;;24.35;22.00;;;26.30;88.40;;;;;;5022639;28;20068;-48
2021/06/27 08:48:55;;;;;;;19.00;17.00;;;26.20;90.50;;;;;;5025674;28;20045;-49
2021/06/27 08:51:22;;;;;;;14.70;13.30;;;26.20;90.90;;;;;;5024513;28;20176;-50
2021/06/27 08:53:51;;;;;;;26.77;24.25;;;26.20;90.30;;;;;;5024595;28;20053;-49
2021/06/27 08:56:18;;;;;;;26.90;24.50;;;26.40;90.00;;;;;;5022717;28;20418;-48
2021/06/27 08:58:45;;;;;;;15.73;14.15;;;26.40;89.50;;;;;;5020644;28;20041;-48
2021/06/27 09:01:14;;;;;;;14.38;13.05;;;26.70;90.10;;;;;;5025868;28;20470;-49
2021/06/27 09:03:41;;;;;;;13.80;12.45;;;26.90;89.90;;;;;;5026047;28;20051;-50
2021/06/27 09:06:09;;;;;;;14.15;12.73;;;27.30;86.30;;;;;;5016989;28;20050;-49
2021/06/27 09:08:35;;;;;;;14.07;12.80;;;27.10;84.30;;;;;;5020124;28;20572;-44
2021/06/27 09:11:15;;;;;;;14.70;13.32;;;27.00;80.20;;;;;;5025170;28;20053;-51
2021/06/27 09:13:43;;;;;;;17.33;15.82;;;27.00;79.60;;;;;;5025623;28;20474;-45
2021/06/27 09:16:25;;;;;;;13.98;12.52;;;26.80;80.90;;;;;;5026294;28;20050;-47
2021/06/27 09:18:58;;;;;;;13.90;12.32;;;26.40;80.30;;;;;;5024735;28;20052;-48
2021/06/27 09:21:24;;;;;;;17.15;15.65;;;26.30;81.80;;;;;;5022129;28;20042;-48
2021/06/27 09:23:51;;;;;;;18.73;15.73;;;26.20;84.20;;;;;;5026035;28;20045;-47
2021/06/27 09:26:33;;;;;;;14.50;13.07;;;25.90;84.50;;;;;;5027232;28;20478;-49
2021/06/27 09:29:00;;;;;;;12.45;11.25;;;25.90;84.00;;;;;;5023729;28;20046;-46
2021/06/27 09:31:42;;;;;;;14.70;13.25;;;25.80;82.60;;;;;;5024758;28;20051;-50
2021/06/27 09:34:12;;;;;;;11.85;10.65;;;25.90;87.00;;;;;;5024927;28;20041;-46
2021/06/27 09:36:51;;;;;;;13.93;12.60;;;25.80;84.90;;;;;;5011463;28;20049;-50
2021/06/27 09:39:18;;;;;;;14.65;13.35;;;25.80;86.40;;;;;;5019303;28;20045;-51
2021/06/27 09:41:51;;;;;;;15.05;13.18;;;25.80;87.50;;;;;;5027420;28;20045;-46
2021/06/27 09:44:17;;;;;;;68.75;62.50;;;26.20;86.90;;;;;;5026507;28;20077;-51
2021/06/27 09:46:50;;;;;;;17.38;15.85;;;26.50;86.00;;;;;;5024950;28;20048;-50
2021/06/27 09:49:39;;;;;;;21.58;19.60;;;26.60;84.00;;;;;;5024972;28;20046;-50
2021/06/27 09:52:08;;;;;;;11.15;9.98;;;26.70;83.70;;;;;;5019731;28;20080;-47
2021/06/27 09:54:36;;;;;;;19.58;17.73;;;26.80;84.00;;;;;;5026362;28;20084;-49
2021/06/27 09:57:03;;;;;;;11.98;10.77;;;27.00;84.30;;;;;;5016568;28;20149;-48
2021/06/27 09:59:36;;;;;;;11.23;10.20;;;27.20;79.30;;;;;;5015173;28;20054;-50
2021/06/27 10:02:03;;;;;;;11.30;10.15;;;27.20;79.00;;;;;;5015735;28;20073;-53
2021/06/27 10:04:31;;;;;;;12.07;11.07;;;27.10;81.90;;;;;;5018085;28;20115;-48
2021/06/27 10:06:59;;;;;;;13.40;12.02;;;27.00;80.00;;;;;;5017837;28;20044;-49
2021/06/27 10:09:37;;;;;;;26.98;24.40;;;27.00;81.30;;;;;;5014980;28;20507;-47
2021/06/27 10:12:16;;;;;;;15.32;13.82;;;27.20;83.90;;;;;;5027184;28;20050;-49
2021/06/27 10:14:49;;;;;;;14.82;13.43;;;27.40;79.90;;;;;;5014763;28;20040;-50
2021/06/27 10:17:18;;;;;;;21.77;19.63;;;27.40;81.00;;;;;;5017298;28;20112;-49
2021/06/27 10:19:48;;;;;;;21.42;19.23;;;27.40;79.60;;;;;;5016268;28;20046;-48
2021/06/27 10:22:14;;;;;;;31.55;28.65;;;27.30;80.00;;;;;;5009434;28;20045;-45
2021/06/27 10:24:41;;;;;;;11.55;10.45;;;27.20;79.40;;;;;;5023308;28;20126;-48
2021/06/27 10:27:13;;;;;;;14.30;12.90;;;27.40;80.60;;;;;;5016997;28;20041;-48
2021/06/27 10:29:43;;;;;;;11.57;10.38;;;27.40;79.80;;;;;;5015885;28;20041;-50
2021/06/27 10:32:11;;;;;;;11.07;10.07;;;27.50;80.20;;;;;;5014646;28;20132;-47
2021/06/27 10:34:38;;;;;;;11.30;10.13;;;27.80;80.10;;;;;;5022575;28;20080;-49
2021/06/27 10:37:28;;;;;;;10.65;9.68;;;28.10;78.10;;;;;;5025373;28;20050;-46
2021/06/27 10:40:19;;;;;;;11.48;10.45;;;28.30;78.70;;;;;;5007049;28;20068;-48
2021/06/27 10:42:50;;;;;;;10.43;9.45;;;28.30;72.90;;;;;;5012694;28;20084;-49
2021/06/27 10:45:21;;;;;;;10.85;9.77;;;28.00;73.70;;;;;;5015153;28;20052;-46
2021/06/27 10:47:52;;;;;;;10.95;9.85;;;28.30;76.60;;;;;;5017352;28;20504;-47
2021/06/27 10:50:22;;;;;;;10.50;9.60;;;28.50;76.00;;;;;;5025492;28;20104;-47
2021/06/27 10:52:53;;;;;;;9.40;8.47;;;28.70;71.40;;;;;;5019157;28;20120;-49
2021/06/27 10:55:26;;;;;;;10.70;8.98;;;28.80;75.30;;;;;;5024779;28;20363;-46
2021/06/27 10:58:03;;;;;;;10.00;9.10;;;29.10;72.80;;;;;;5024831;28;20055;-47
2021/06/27 11:01:08;;;;;;;9.98;9.02;;;29.50;71.20;;;;;;5016465;28;20046;-51
2021/06/27 11:03:39;;;;;;;30.38;27.65;;;29.40;68.00;;;;;;5022474;28;20073;-49
2021/06/27 11:06:27;;;;;;;39.42;36.05;;;29.50;69.10;;;;;;5020989;28;20046;-49
2021/06/27 11:08:58;;;;;;;17.67;16.02;;;29.80;67.10;;;;;;5011749;28;20052;-51
2021/06/27 11:11:26;;;;;;;;;;;30.00;66.40;;;;;;5021627;28;20088;-52
2021/06/27 11:14:13;;;;;;;15.93;14.45;;;30.10;63.60;;;;;;5010705;28;20028;-45
2021/06/27 11:17:00;;;;;;;24.38;22.30;;;29.80;65.50;;;;;;5017271;28;20041;-49
2021/06/27 11:19:28;;;;;;;24.33;22.05;;;29.50;64.30;;;;;;5007032;28;20116;-48
2021/06/27 11:22:19;;;;;;;10.10;9.05;;;29.70;66.50;;;;;;5020649;28;20188;-49
2021/06/27 11:24:48;;;;;;;22.63;20.58;;;30.00;63.60;;;;;;5023007;28;20140;-46
2021/06/27 11:27:39;;;;;;;10.07;9.18;;;30.30;64.60;;;;;;5024838;28;20042;-49
2021/06/27 11:30:29;;;;;;;11.13;10.13;;;30.50;62.50;;;;;;5025633;28;20064;-47
2021/06/27 11:33:23;;;;;;;10.75;9.75;;;30.10;62.80;;;;;;5026789;28;20072;-48
2021/06/27 11:35:53;;;;;;;17.52;15.82;;;30.30;64.30;;;;;;5023152;28;20053;-49
2021/06/27 11:38:39;;;;;;;19.33;17.60;;;29.80;65.00;;;;;;5022423;28;20486;-51
2021/06/27 11:41:37;;;;;;;11.32;10.20;;;29.60;65.20;;;;;;5026162;28;20045;-47
2021/06/27 11:44:14;;;;;;;15.13;13.80;;;30.00;65.90;;;;;;5027363;28;20073;-47
2021/06/27 11:46:46;;;;;;;12.73;11.35;;;30.10;64.00;;;;;;5023820;28;20057;-50
2021/06/27 11:49:25;;;;;;;15.00;13.70;;;30.00;64.90;;;;;;5019877;28;20046;-50
2021/06/27 11:51:56;;;;;;;13.23;12.10;;;30.30;64.70;;;;;;5023002;28;20061;-49
2021/06/27 11:54:30;;;;;;;11.93;10.77;;;30.70;63.60;;;;;;5028023;28;20176;-52
2021/06/27 11:57:06;;;;;;;15.23;13.88;;;30.80;62.50;;;;;;5028530;28;20363;-48
2021/06/27 11:59:52;;;;;;;10.25;9.23;;;31.30;62.20;;;;;;5025520;28;21408;-50
2021/06/27 12:02:23;;;;;;;7.57;6.82;;;31.20;59.40;;;;;;5018597;28;20103;-49
2021/06/27 12:05:01;;;;;;;8.82;7.97;;;31.50;59.20;;;;;;5024669;28;20508;-47
2021/06/27 12:07:38;;;;;;;8.52;7.72;;;31.20;59.80;;;;;;5008566;28;20049;-52
2021/06/27 12:10:15;;;;;;;10.20;9.13;;;30.90;59.70;;;;;;5021265;28;20639;-50
2021/06/27 12:12:58;;;;;;;33.50;30.77;;;31.40;60.10;;;;;;5031570;28;20057;-51
2021/06/27 12:15:56;;;;;;;16.10;14.70;;;31.70;57.00;;;;;;5023285;28;20497;-48
2021/06/27 12:18:24;;;;;;;12.15;10.02;;;31.00;56.60;;;;;;5032901;28;20056;-48
2021/06/27 12:20:58;;;;;;;20.10;18.45;;;30.90;57.70;;;;;;5034816;28;20440;-47
2021/06/27 12:23:42;;;;;;;11.95;10.85;;;31.20;58.50;;;;;;5032797;28;20485;-49
2021/06/27 12:26:16;;;;;;;11.32;10.18;;;31.80;57.50;;;;;;5043848;28;20053;-52
2021/06/27 12:28:46;;;;;;;11.25;10.25;;;31.70;57.30;;;;;;5037655;28;20588;-49
2021/06/27 12:31:18;;;;;;;;;;;31.80;57.40;;;;;;5030790;28;20045;-48
2021/06/27 12:33:52;;;;;;;13.40;12.18;;;31.70;55.70;;;;;;5035472;28;19972;-47
2021/06/27 12:36:33;;;;;;;13.40;12.18;;;31.70;54.40;;;;;;5030046;28;20061;-48
2021/06/27 12:39:05;;;;;;;17.45;15.90;;;31.60;55.90;;;;;;5042982;28;20048;-46
2021/06/27 12:41:35;;;;;;;19.38;17.63;;;30.90;57.60;;;;;;5041694;28;20128;-47
2021/06/27 12:44:08;;;;;;;13.27;11.70;;;31.40;57.70;;;;;;5046084;28;20406;-47